This demonstration page uses our WeatherBlox Daily Observations layout. Learn more.

Left ArrowRight Arrow

41.86663, -103.66717

Hourly Observations for July 2, 2018

Temp ( °F °C ) Dew Point ( °F °C ) Humidity (%) Winds ( mph kmh ) Pressure ( in mb ) Visibility ( mi km ) Precip ( " mm )
12:53 am 00:53 Clear 63 17.2 58 14.4 84 84 E 6 9 29.84 1011 10 16.0934 N/A
1:53 am 01:53 Clear 61 16.1 57 13.9 87 87 E 3 6 29.83 1010 10 16.0934 N/A
2:53 am 02:53 Clear 58 14.4 56 13.3 93 93 N 7 11 29.85 1011 10 16.0934 N/A
3:53 am 03:53 Clear 58 14.4 52 11.1 81 81 NNW 8 13 29.85 1011 10 16.0934 N/A
4:53 am 04:53 Clear 57 13.9 52 11.1 83 83 N N/A 29.86 1011 10 16.0934 N/A
5:53 am 05:53 Sunny 56 13.3 53 11.7 90 90 NNW 3 6 29.87 1011 10 16.0934 N/A
6:53 am 06:53 Sunny 61 16.1 55 12.8 81 81 NNW 8 13 29.85 1011 10 16.0934 N/A
7:53 am 07:53 Sunny 68 20 55 12.8 63 63 NW 7 11 29.84 1011 10 16.0934 N/A
8:53 am 08:53 Sunny 73 22.8 56 13.3 55 55 NW 9 15 29.85 1011 10 16.0934 N/A
9:53 am 09:53 Sunny 76 24.4 55 12.8 48 48 WNW 7 11 29.83 1010 10 16.0934 N/A
10:53 am 10:53 Sunny 83 28.3 57 13.9 41 41 W 7 11 29.82 1010 10 16.0934 N/A
11:53 am 11:53 Sunny 85 29.4 60 15.6 43 43 VRB 3 6 29.8 1009 10 16.0934 N/A
12:53 pm 12:53 Sunny 87 30.6 60 15.6 40 40 E 8 13 29.79 1009 10 16.0934 N/A
1:53 pm 13:53 Sunny 89 31.7 58 14.4 35 35 E 9 15 29.77 1008 10 16.0934 N/A
2:53 pm 14:53 Sunny 91 32.8 57 13.9 32 32 E 13 20 29.75 1007 10 16.0934 N/A
3:53 pm 15:53 Sunny 92 33.3 57 13.9 31 31 E 9 15 29.72 1007 10 16.0934 N/A
4:53 pm 16:53 Sunny 91 32.8 58 14.4 33 33 ESE 16 26 29.71 1006 10 16.0934 N/A
5:53 pm 17:53 Sunny 90 32.2 60 15.6 37 37 ESE 15 24 29.7 1006 10 16.0934 N/A
6:53 pm 18:53 Sunny 86 30 60 15.6 42 42 ESE 8 13 29.7 1006 10 16.0934 N/A
7:53 pm 19:53 Sunny 82 27.8 66 18.9 58 58 SE 3 6 29.7 1006 10 16.0934 N/A
8:53 pm 20:53 Clear 80 26.7 59 15 49 49 SE 12 19 29.7 1006 10 16.0934 N/A
9:53 pm 21:53 Clear 73 22.8 65 18.3 76 76 ESE 7 11 29.72 1006 10 16.0934 N/A
10:53 pm 22:53 Clear 70 21.1 66 18.9 87 87 ENE 3 6 29.72 1006 10 16.0934 N/A
11:53 pm 23:53 Clear 71 21.7 67 19.4 87 87 E 12 19 29.73 1007 10 16.0934 N/A

Powered by AerisWeather